Time;durP1;ratioP1;P1;durP2;ratioP2;P2;SDS_P1;SDS_P2;PMS_P1;PMS_P2;Temp;Humidity;BMP_temperature;BMP_pressure;BME280_temperature;BME280_humidity;BME280_pressure;Samples;Min_cycle;Max_cycle;Signal;HPM_P1;HPM_P2
2022/11/03 00:02:09;;;;;;;19.95;9.43;;;;;;;;;;4930356;28;20552;-61
2022/11/03 00:04:35;;;;;;;20.88;11.07;;;;;;;;;;4931188;28;20026;-61
2022/11/03 00:07:00;;;;;;;23.70;11.23;;;;;;;;;;4930741;28;20120;-61
2022/11/03 00:09:26;;;;;;;26.42;11.73;;;;;;;;;;4930766;28;20401;-61
2022/11/03 00:11:51;;;;;;;21.20;10.45;;;;;;;;;;4932339;28;20430;-61
2022/11/03 00:14:17;;;;;;;25.90;10.57;;;;;;;;;;4930902;28;20424;-60
2022/11/03 00:16:42;;;;;;;25.25;10.55;;;;;;;;;;4931065;28;20319;-62
2022/11/03 00:19:09;;;;;;;17.70;9.18;;;;;;;;;;4932406;28;20322;-61
2022/11/03 00:21:35;;;;;;;24.58;11.00;;;;;;;;;;4931229;28;20441;-63
2022/11/03 00:24:03;;;;;;;24.15;11.45;;;;;;;;;;4929937;28;20394;-60
2022/11/03 00:26:33;;;;;;;20.95;11.70;;;;;;;;;;4930354;28;20398;-62
2022/11/03 00:29:00;;;;;;;27.80;12.73;;;;;;;;;;4930419;28;20404;-61
2022/11/03 00:31:27;;;;;;;23.05;12.10;;;;;;;;;;4930289;28;20381;-61
2022/11/03 00:33:53;;;;;;;28.23;13.52;;;;;;;;;;4930560;28;20380;-61
2022/11/03 00:36:21;;;;;;;25.00;11.68;;;;;;;;;;4930751;28;20472;-61
2022/11/03 00:38:47;;;;;;;24.15;10.82;;;;;;;;;;4929673;28;20480;-60
2022/11/03 00:41:12;;;;;;;20.33;10.20;;;;;;;;;;4930517;28;20453;-61
2022/11/03 00:43:38;;;;;;;16.65;9.57;;;;;;;;;;4929929;28;20491;-60
2022/11/03 00:46:05;;;;;;;18.80;9.85;;;;;;;;;;4930595;28;20528;-61
2022/11/03 00:48:33;;;;;;;17.35;10.07;;;;;;;;;;4930195;28;20401;-61
2022/11/03 00:51:09;;;;;;;19.70;10.70;;;;;;;;;;4930632;28;20370;-61
2022/11/03 00:53:40;;;;;;;18.50;9.00;;;;;;;;;;4930172;28;20517;-60
2022/11/03 00:56:08;;;;;;;18.48;9.55;;;;;;;;;;4930408;28;20366;-60
2022/11/03 00:58:33;;;;;;;18.48;9.38;;;;;;;;;;4913217;28;20460;-62
2022/11/03 01:01:11;;;;;;;20.38;10.15;;;;;;;;;;4928220;28;20890;-61
2022/11/03 01:03:39;;;;;;;21.77;10.43;;;;;;;;;;4926275;28;20452;-61
2022/11/03 01:08:50;;;;;;;17.45;8.80;;;;;;;;;;4930927;28;20469;-61
2022/11/03 01:14:02;;;;;;;22.63;9.43;;;;;;;;;;4930639;28;20065;-60
2022/11/03 01:16:29;;;;;;;24.25;9.60;;;;;;;;;;4930116;28;20453;-60
2022/11/03 01:18:54;;;;;;;16.60;8.57;;;;;;;;;;4929704;28;20088;-61
2022/11/03 01:21:19;;;;;;;22.65;9.35;;;;;;;;;;4931678;28;20030;-62
2022/11/03 01:23:45;;;;;;;20.67;9.65;;;;;;;;;;4929671;28;20182;-61
2022/11/03 01:26:11;;;;;;;17.05;9.23;;;;;;;;;;4929975;28;20442;-61
2022/11/03 01:28:38;;;;;;;21.75;9.70;;;;;;;;;;4929304;28;20350;-61
2022/11/03 01:31:22;;;;;;;23.45;10.35;;;;;;;;;;4929911;28;20461;-61
2022/11/03 01:33:49;;;;;;;26.27;9.35;;;;;;;;;;4929647;28;20299;-61
2022/11/03 01:36:14;;;;;;;17.73;9.02;;;;;;;;;;4934871;28;20333;-61
2022/11/03 01:38:40;;;;;;;16.30;9.02;;;;;;;;;;4933711;28;20034;-61
2022/11/03 01:41:07;;;;;;;17.65;8.52;;;;;;;;;;4933429;28;20442;-61
2022/11/03 01:43:33;;;;;;;25.00;9.70;;;;;;;;;;4933341;28;20357;-61
2022/11/03 01:46:08;;;;;;;26.40;11.38;;;;;;;;;;4933475;28;20366;-61
2022/11/03 01:48:34;;;;;;;37.22;11.57;;;;;;;;;;4916248;28;20476;-61
2022/11/03 01:51:00;;;;;;;29.30;11.73;;;;;;;;;;4915778;28;20327;-61
2022/11/03 01:53:27;;;;;;;21.17;10.88;;;;;;;;;;4915888;28;20034;-61
2022/11/03 01:55:53;;;;;;;20.83;11.00;;;;;;;;;;4915812;28;20050;-61
2022/11/03 01:58:21;;;;;;;26.10;10.90;;;;;;;;;;4916135;28;20532;-60
2022/11/03 02:00:49;;;;;;;24.70;10.82;;;;;;;;;;4915344;28;20408;-61
2022/11/03 02:03:15;;;;;;;30.23;11.07;;;;;;;;;;4915615;28;20460;-61
2022/11/03 02:05:42;;;;;;;32.88;12.63;;;;;;;;;;4934902;28;20314;-60
2022/11/03 02:08:12;;;;;;;24.05;11.60;;;;;;;;;;4915362;28;20343;-62
2022/11/03 02:10:37;;;;;;;28.17;9.85;;;;;;;;;;4915414;28;20546;-60
2022/11/03 02:13:19;;;;;;;23.02;11.68;;;;;;;;;;4932687;28;20430;-61
2022/11/03 02:15:46;;;;;;;22.42;11.52;;;;;;;;;;4932493;28;20468;-62
2022/11/03 02:18:12;;;;;;;28.42;10.75;;;;;;;;;;4916330;28;20453;-60
2022/11/03 02:20:38;;;;;;;19.63;10.88;;;;;;;;;;4915552;28;20500;-60
2022/11/03 02:23:22;;;;;;;22.85;11.52;;;;;;;;;;4915259;28;20442;-61
2022/11/03 02:25:49;;;;;;;20.90;10.05;;;;;;;;;;4934916;28;20034;-61
2022/11/03 02:28:18;;;;;;;18.25;9.02;;;;;;;;;;4592188;28;10002551;-60
2022/11/03 02:30:58;;;;;;;23.88;11.40;;;;;;;;;;4915486;28;20178;-63
2022/11/03 02:33:31;;;;;;;25.23;10.23;;;;;;;;;;4932772;28;20528;-61
2022/11/03 02:36:06;;;;;;;26.30;10.45;;;;;;;;;;4915526;28;20319;-60
2022/11/03 02:38:32;;;;;;;26.02;11.45;;;;;;;;;;4932691;28;20393;-60
2022/11/03 02:41:00;;;;;;;19.45;10.65;;;;;;;;;;4915295;28;20556;-61
2022/11/03 02:43:26;;;;;;;23.20;9.85;;;;;;;;;;4914967;28;20505;-61
2022/11/03 02:45:53;;;;;;;20.35;10.35;;;;;;;;;;4931999;28;20426;-61
2022/11/03 02:48:19;;;;;;;15.68;8.10;;;;;;;;;;4915604;28;20427;-61
2022/11/03 02:50:46;;;;;;;20.33;8.93;;;;;;;;;;4932499;28;20447;-60
2022/11/03 02:53:13;;;;;;;19.08;10.48;;;;;;;;;;4932541;28;20023;-60
2022/11/03 02:55:57;;;;;;;15.13;8.90;;;;;;;;;;4932263;28;20349;-61
2022/11/03 02:58:36;;;;;;;22.05;9.30;;;;;;;;;;4932291;28;20345;-61
2022/11/03 03:01:13;;;;;;;53.20;10.55;;;;;;;;;;4909680;28;20362;-61
2022/11/03 03:04:00;;;;;;;19.27;10.35;;;;;;;;;;4895410;28;20462;-61
2022/11/03 03:06:49;;;;;;;21.73;9.48;;;;;;;;;;4895313;28;20565;-60
2022/11/03 03:09:21;;;;;;;19.73;8.70;;;;;;;;;;4912051;28;20039;-61
2022/11/03 03:11:48;;;;;;;16.10;8.00;;;;;;;;;;4895281;28;20045;-60
2022/11/03 03:14:16;;;;;;;19.65;8.80;;;;;;;;;;4895245;28;20386;-61
2022/11/03 03:17:00;;;;;;;23.27;9.70;;;;;;;;;;4895407;28;20432;-61
2022/11/03 03:19:25;;;;;;;20.05;9.10;;;;;;;;;;4912506;28;20482;-60
2022/11/03 03:21:53;;;;;;;23.65;9.25;;;;;;;;;;4912640;28;20505;-62
2022/11/03 03:24:30;;;;;;;24.85;10.23;;;;;;;;;;4912642;28;20438;-61
2022/11/03 03:27:00;;;;;;;26.92;10.13;;;;;;;;;;4895088;28;20517;-61
2022/11/03 03:29:28;;;;;;;20.40;9.73;;;;;;;;;;4895328;28;20331;-61
2022/11/03 03:31:57;;;;;;;28.48;10.13;;;;;;;;;;4895300;28;20353;-61
2022/11/03 03:34:24;;;;;;;29.77;10.47;;;;;;;;;;4895397;28;20053;-61
2022/11/03 03:36:50;;;;;;;23.70;10.25;;;;;;;;;;4895183;28;20602;-61
2022/11/03 03:39:17;;;;;;;22.48;9.85;;;;;;;;;;4894654;28;20346;-61
2022/11/03 03:41:44;;;;;;;23.45;9.40;;;;;;;;;;4894694;28;20553;-61
2022/11/03 03:44:10;;;;;;;30.25;9.52;;;;;;;;;;4894660;28;20418;-60
2022/11/03 03:46:38;;;;;;;20.25;9.18;;;;;;;;;;4894547;28;20508;-60
2022/11/03 03:49:04;;;;;;;16.52;9.57;;;;;;;;;;4912400;28;20031;-61
2022/11/03 03:51:30;;;;;;;21.23;8.82;;;;;;;;;;4912333;28;20102;-61
2022/11/03 03:53:55;;;;;;;23.58;9.55;;;;;;;;;;4894429;28;20434;-61
2022/11/03 03:56:25;;;;;;;23.55;8.32;;;;;;;;;;4912135;28;20448;-60
2022/11/03 03:58:51;;;;;;;17.20;9.07;;;;;;;;;;4895299;28;20693;-60
2022/11/03 04:01:16;;;;;;;17.83;8.82;;;;;;;;;;4918539;28;20042;-61
2022/11/03 04:03:41;;;;;;;17.67;8.93;;;;;;;;;;4931276;28;20544;-62
2022/11/03 04:06:08;;;;;;;20.63;9.30;;;;;;;;;;4931045;28;20311;-61
2022/11/03 04:08:33;;;;;;;19.48;9.05;;;;;;;;;;4913670;28;20354;-61
2022/11/03 04:24:38;;;;;;;16.77;8.40;;;;;;;;;;4930807;28;20096;-61
2022/11/03 04:27:31;;;;;;;19.27;8.68;;;;;;;;;;4931301;28;20433;-61
2022/11/03 04:30:18;;;;;;;15.25;8.20;;;;;;;;;;4918082;28;20520;-61
2022/11/03 04:32:45;;;;;;;16.23;9.52;;;;;;;;;;4930529;28;20453;-60
2022/11/03 04:35:23;;;;;;;18.55;8.80;;;;;;;;;;4930638;28;20091;-60
2022/11/03 04:38:00;;;;;;;22.67;9.07;;;;;;;;;;4930571;28;20057;-61
2022/11/03 04:40:26;;;;;;;17.50;9.02;;;;;;;;;;4930368;28;20133;-63
2022/11/03 04:42:52;;;;;;;18.70;9.25;;;;;;;;;;4930663;28;20114;-60
2022/11/03 04:45:20;;;;;;;23.20;9.15;;;;;;;;;;4930175;28;20038;-60
2022/11/03 04:47:45;;;;;;;20.73;9.70;;;;;;;;;;4930419;28;20435;-61
2022/11/03 04:50:18;;;;;;;18.98;9.40;;;;;;;;;;4930553;28;20303;-61
2022/11/03 04:52:45;;;;;;;20.02;8.93;;;;;;;;;;4930409;28;20049;-61
2022/11/03 04:55:14;;;;;;;22.70;9.45;;;;;;;;;;4930350;28;20445;-61
2022/11/03 04:57:39;;;;;;;23.60;9.93;;;;;;;;;;4931079;28;20401;-61
2022/11/03 05:00:06;;;;;;;17.25;8.40;;;;;;;;;;4930189;28;20482;-61
2022/11/03 05:02:31;;;;;;;21.95;9.90;;;;;;;;;;4930189;28;20133;-61
2022/11/03 05:04:57;;;;;;;16.05;7.97;;;;;;;;;;4930649;28;20437;-61
2022/11/03 05:07:25;;;;;;;19.42;8.57;;;;;;;;;;4929965;28;20474;-61
2022/11/03 05:09:50;;;;;;;21.35;9.10;;;;;;;;;;4912350;28;20019;-62
2022/11/03 05:12:17;;;;;;;21.45;8.57;;;;;;;;;;4929697;28;20473;-60
2022/11/03 05:14:42;;;;;;;18.90;8.13;;;;;;;;;;4930213;28;20191;-60
2022/11/03 05:17:25;;;;;;;20.85;7.72;;;;;;;;;;4929989;28;20396;-61
2022/11/03 05:19:55;;;;;;;19.63;8.43;;;;;;;;;;4912906;28;20453;-61
2022/11/03 05:22:21;;;;;;;16.30;8.13;;;;;;;;;;4930421;28;20084;-61
2022/11/03 05:24:47;;;;;;;19.30;8.25;;;;;;;;;;4929447;28;20026;-60
2022/11/03 05:27:18;;;;;;;21.85;9.55;;;;;;;;;;4912350;28;20473;-61
2022/11/03 05:29:44;;;;;;;15.00;7.85;;;;;;;;;;4912556;28;20418;-61
2022/11/03 05:32:23;;;;;;;21.27;7.70;;;;;;;;;;4912224;28;20414;-61
2022/11/03 05:34:51;;;;;;;23.13;9.73;;;;;;;;;;4912796;28;20142;-61
2022/11/03 05:37:26;;;;;;;16.33;8.27;;;;;;;;;;4930205;28;20034;-61
2022/11/03 05:39:57;;;;;;;22.40;10.02;;;;;;;;;;4929934;28;20318;-61
2022/11/03 05:42:41;;;;;;;28.70;9.93;;;;;;;;;;4929943;28;20322;-60
2022/11/03 05:45:19;;;;;;;27.73;11.30;;;;;;;;;;4931525;28;20323;-61
2022/11/03 05:47:44;;;;;;;23.20;9.77;;;;;;;;;;4929666;28;20345;-60
2022/11/03 05:50:18;;;;;;;27.70;10.80;;;;;;;;;;4929427;28;20319;-60
2022/11/03 05:52:45;;;;;;;25.33;10.45;;;;;;;;;;4930037;28;20425;-61
2022/11/03 05:55:24;;;;;;;15.05;8.20;;;;;;;;;;4927753;28;20319;-60
2022/11/03 05:57:51;;;;;;;21.17;8.65;;;;;;;;;;4929219;28;20453;-61
2022/11/03 06:00:40;;;;;;;21.23;7.75;;;;;;;;;;4930262;28;20097;-60
2022/11/03 06:03:06;;;;;;;20.02;8.38;;;;;;;;;;4917462;28;20374;-60
2022/11/03 06:05:33;;;;;;;29.92;8.80;;;;;;;;;;4929541;28;20350;-61
2022/11/03 06:08:05;;;;;;;27.67;9.68;;;;;;;;;;4929775;28;20362;-61
2022/11/03 06:10:33;;;;;;;22.27;9.88;;;;;;;;;;4912215;28;20373;-61
2022/11/03 06:13:01;;;;;;;29.63;9.85;;;;;;;;;;4930710;28;20413;-60
2022/11/03 06:15:33;;;;;;;31.25;10.95;;;;;;;;;;4912444;28;20452;-60
2022/11/03 06:17:59;;;;;;;30.75;11.85;;;;;;;;;;4929593;28;20031;-60
2022/11/03 06:20:25;;;;;;;31.60;11.10;;;;;;;;;;4911806;28;20042;-58
2022/11/03 06:22:54;;;;;;;33.95;10.68;;;;;;;;;;4932086;28;20442;-61
2022/11/03 06:25:35;;;;;;;25.33;10.45;;;;;;;;;;4933171;28;20385;-62
2022/11/03 06:28:02;;;;;;;23.50;9.80;;;;;;;;;;4932599;28;20353;-61
2022/11/03 06:30:30;;;;;;;22.65;9.27;;;;;;;;;;4933147;28;20460;-60
2022/11/03 06:33:02;;;;;;;26.45;9.43;;;;;;;;;;4933859;28;20556;-61
2022/11/03 06:35:28;;;;;;;24.27;9.85;;;;;;;;;;4932789;28;20345;-61
2022/11/03 06:37:55;;;;;;;22.17;10.02;;;;;;;;;;4933810;28;20048;-61
2022/11/03 06:40:23;;;;;;;29.08;10.27;;;;;;;;;;4916018;28;20437;-61
2022/11/03 06:42:48;;;;;;;24.15;10.35;;;;;;;;;;4932865;28;20318;-60
2022/11/03 06:45:19;;;;;;;24.55;9.68;;;;;;;;;;4932716;28;20053;-61
2022/11/03 06:47:45;;;;;;;19.05;8.23;;;;;;;;;;4932987;28;20457;-61
2022/11/03 06:50:23;;;;;;;19.55;8.77;;;;;;;;;;4932535;28;20446;-61
2022/11/03 06:52:49;;;;;;;29.35;9.35;;;;;;;;;;4915177;28;20540;-61
2022/11/03 06:55:26;;;;;;;20.92;9.45;;;;;;;;;;4915774;28;20461;-60
2022/11/03 06:58:09;;;;;;;28.77;10.07;;;;;;;;;;4932888;28;20429;-60
2022/11/03 07:00:37;;;;;;;19.05;8.02;;;;;;;;;;4931855;28;20088;-60
2022/11/03 07:03:32;;;;;;;21.60;9.65;;;;;;;;;;4932377;28;20034;-60
2022/11/03 07:05:59;;;;;;;25.23;9.25;;;;;;;;;;4932210;28;20326;-61
2022/11/03 07:08:24;;;;;;;19.75;9.48;;;;;;;;;;4933664;28;20369;-61
2022/11/03 07:10:58;;;;;;;24.85;11.35;;;;;;;;;;4932267;28;20406;-61
2022/11/03 07:13:24;;;;;;;20.33;9.48;;;;;;;;;;4931956;28;20424;-61
2022/11/03 07:15:50;;;;;;;17.27;9.52;;;;;;;;;;4914194;28;20307;-61
2022/11/03 07:18:22;;;;;;;17.10;9.40;;;;;;;;;;4914966;28;20449;-61
2022/11/03 07:20:48;;;;;;;18.67;9.00;;;;;;;;;;4933401;28;20358;-60
2022/11/03 07:23:18;;;;;;;18.02;10.15;;;;;;;;;;4931701;28;20030;-62
2022/11/03 07:25:45;;;;;;;19.75;8.60;;;;;;;;;;4932219;28;20460;-61
2022/11/03 07:28:12;;;;;;;17.38;9.40;;;;;;;;;;4914518;28;20497;-60
2022/11/03 07:30:37;;;;;;;16.33;9.07;;;;;;;;;;4931830;28;20050;-61
2022/11/03 07:33:16;;;;;;;18.90;9.60;;;;;;;;;;4931983;28;20109;-60
2022/11/03 07:35:43;;;;;;;19.27;9.50;;;;;;;;;;4914263;28;20345;-62
2022/11/03 07:38:13;;;;;;;18.40;9.00;;;;;;;;;;4932076;28;20057;-61
2022/11/03 07:40:39;;;;;;;18.65;10.45;;;;;;;;;;4931655;28;20104;-61
2022/11/03 07:43:17;;;;;;;18.50;9.27;;;;;;;;;;4915245;28;20026;-62
2022/11/03 07:45:47;;;;;;;17.98;9.60;;;;;;;;;;4931391;28;20363;-61
2022/11/03 07:48:33;;;;;;;18.73;10.07;;;;;;;;;;4931713;28;20414;-60
2022/11/03 07:51:20;;;;;;;22.45;11.13;;;;;;;;;;4913978;28;20465;-62
2022/11/03 07:53:46;;;;;;;18.98;10.50;;;;;;;;;;4914529;28;20346;-63
2022/11/03 07:56:24;;;;;;;19.38;9.73;;;;;;;;;;4931561;28;20456;-61
2022/11/03 07:58:53;;;;;;;23.15;11.38;;;;;;;;;;4931413;28;20422;-61
2022/11/03 08:01:22;;;;;;;19.80;10.35;;;;;;;;;;4930462;28;20077;-61
2022/11/03 08:03:47;;;;;;;19.05;9.05;;;;;;;;;;4932685;28;20449;-61
2022/11/03 08:06:13;;;;;;;20.50;9.88;;;;;;;;;;4930626;28;20339;-61
2022/11/03 08:08:38;;;;;;;17.75;9.40;;;;;;;;;;4931204;28;20449;-62
2022/11/03 08:11:04;;;;;;;19.30;9.63;;;;;;;;;;4931118;28;20437;-60
2022/11/03 08:13:30;;;;;;;18.10;9.05;;;;;;;;;;4930825;28;20040;-61
2022/11/03 08:15:56;;;;;;;23.40;10.93;;;;;;;;;;4930704;28;20026;-61
2022/11/03 08:18:22;;;;;;;18.60;9.20;;;;;;;;;;4930942;28;20397;-60
2022/11/03 08:20:47;;;;;;;18.95;9.45;;;;;;;;;;4932446;28;20446;-61
2022/11/03 08:23:12;;;;;;;18.55;8.10;;;;;;;;;;4931082;28;20389;-61
2022/11/03 08:25:37;;;;;;;18.83;9.07;;;;;;;;;;4930751;28;20034;-61
2022/11/03 08:28:03;;;;;;;18.80;8.98;;;;;;;;;;4930502;28;20521;-61
2022/11/03 08:30:29;;;;;;;18.05;9.30;;;;;;;;;;4931945;28;20521;-62
2022/11/03 08:32:54;;;;;;;20.73;9.73;;;;;;;;;;4930433;28;20409;-61
2022/11/03 08:35:19;;;;;;;19.25;8.48;;;;;;;;;;4930483;28;20023;-61
2022/11/03 08:37:45;;;;;;;17.50;8.10;;;;;;;;;;4930991;28;20512;-61
2022/11/03 08:40:10;;;;;;;16.27;8.25;;;;;;;;;;4932099;28;20354;-61
2022/11/03 08:42:36;;;;;;;15.65;7.80;;;;;;;;;;4930301;28;20070;-61
2022/11/03 08:45:01;;;;;;;13.77;7.28;;;;;;;;;;4929878;28;20054;-62
2022/11/03 08:47:26;;;;;;;18.45;8.07;;;;;;;;;;4930307;28;20350;-61
2022/11/03 08:49:52;;;;;;;19.00;7.95;;;;;;;;;;4931113;28;20374;-59
2022/11/03 08:52:17;;;;;;;16.65;8.07;;;;;;;;;;4930575;28;20428;-60
2022/11/03 08:54:42;;;;;;;23.40;8.73;;;;;;;;;;4931181;28;20354;-60
2022/11/03 08:57:08;;;;;;;17.00;8.25;;;;;;;;;;4932030;28;20432;-59
2022/11/03 08:59:33;;;;;;;16.73;7.10;;;;;;;;;;4930271;28;20362;-59
2022/11/03 09:01:58;;;;;;;14.77;7.32;;;;;;;;;;4929861;28;20105;-59
2022/11/03 09:04:25;;;;;;;12.73;6.80;;;;;;;;;;4930084;28;20460;-60
2022/11/03 09:06:50;;;;;;;17.40;7.47;;;;;;;;;;4912136;28;20326;-60
2022/11/03 09:09:15;;;;;;;18.52;6.95;;;;;;;;;;4930610;28;20345;-59
2022/11/03 09:11:41;;;;;;;14.98;6.38;;;;;;;;;;4929886;28;20417;-62
2022/11/03 09:14:06;;;;;;;12.48;6.60;;;;;;;;;;4930011;28;20442;-61
2022/11/03 09:16:32;;;;;;;17.55;6.85;;;;;;;;;;4930044;28;20393;-60
2022/11/03 09:18:57;;;;;;;11.90;6.00;;;;;;;;;;4929670;28;20445;-59
2022/11/03 09:21:22;;;;;;;11.73;6.18;;;;;;;;;;4929931;28;20339;-59
2022/11/03 09:23:47;;;;;;;12.18;5.72;;;;;;;;;;4929788;28;20353;-59
2022/11/03 09:26:13;;;;;;;10.90;5.35;;;;;;;;;;4931029;28;20445;-59
2022/11/03 09:28:38;;;;;;;14.13;4.97;;;;;;;;;;4929615;28;20461;-59
2022/11/03 09:31:04;;;;;;;12.95;5.80;;;;;;;;;;4930082;28;20319;-60
2022/11/03 09:33:29;;;;;;;12.23;5.53;;;;;;;;;;4929617;28;20397;-60
2022/11/03 09:35:55;;;;;;;13.70;5.60;;;;;;;;;;4929783;28;20497;-59
2022/11/03 09:38:20;;;;;;;14.30;5.35;;;;;;;;;;4930031;28;20026;-61
2022/11/03 09:40:45;;;;;;;10.50;5.03;;;;;;;;;;4929640;28;20049;-59
2022/11/03 09:43:11;;;;;;;10.57;5.32;;;;;;;;;;4929587;28;20472;-60
2022/11/03 09:45:37;;;;;;;11.00;4.95;;;;;;;;;;4912459;28;20559;-59
2022/11/03 09:48:03;;;;;;;10.32;4.50;;;;;;;;;;4929418;28;20126;-59
2022/11/03 09:50:28;;;;;;;10.43;4.78;;;;;;;;;;4929698;28;20418;-59
2022/11/03 09:52:55;;;;;;;13.57;4.78;;;;;;;;;;4930564;28;20049;-59
2022/11/03 09:55:24;;;;;;;8.95;4.78;;;;;;;;;;4913046;28;20334;-59
2022/11/03 09:57:51;;;;;;;9.73;4.70;;;;;;;;;;4934120;28;20409;-59
2022/11/03 10:00:19;;;;;;;7.85;3.80;;;;;;;;;;4933498;28;20377;-59
2022/11/03 10:02:46;;;;;;;8.68;4.95;;;;;;;;;;4933319;28;20417;-60
2022/11/03 10:05:13;;;;;;;8.95;4.03;;;;;;;;;;4933362;28;20053;-59
2022/11/03 10:07:41;;;;;;;8.73;4.82;;;;;;;;;;4933243;28;20345;-60
2022/11/03 10:10:14;;;;;;;7.18;3.83;;;;;;;;;;4916151;28;20433;-61
2022/11/03 10:12:39;;;;;;;8.55;3.83;;;;;;;;;;4933845;28;20468;-59
2022/11/03 10:15:08;;;;;;;12.50;4.45;;;;;;;;;;4915542;28;20354;-61
2022/11/03 10:17:34;;;;;;;9.45;3.72;;;;;;;;;;4915702;28;20038;-60
2022/11/03 10:20:00;;;;;;;11.63;3.63;;;;;;;;;;4933033;28;20128;-60
2022/11/03 10:22:25;;;;;;;7.75;3.78;;;;;;;;;;4932924;28;20421;-60
2022/11/03 10:25:29;;;;;;;9.88;3.75;;;;;;;;;;4933085;28;20438;-60
2022/11/03 10:28:20;;;;;;;10.43;4.03;;;;;;;;;;4933164;28;20519;-60
2022/11/03 10:31:16;;;;;;;10.35;4.40;;;;;;;;;;4932555;28;20426;-60
2022/11/03 10:33:53;;;;;;;8.65;3.17;;;;;;;;;;4915128;28;20453;-60
2022/11/03 10:36:19;;;;;;;7.32;3.45;;;;;;;;;;4933895;28;20461;-60
2022/11/03 10:38:45;;;;;;;7.80;3.03;;;;;;;;;;4933411;28;20390;-60
2022/11/03 10:41:26;;;;;;;8.10;3.58;;;;;;;;;;4915036;28;20415;-59
2022/11/03 10:44:01;;;;;;;8.10;3.00;;;;;;;;;;4932501;28;20445;-59
2022/11/03 10:46:27;;;;;;;11.65;3.67;;;;;;;;;;4932311;28;20442;-61
2022/11/03 10:49:09;;;;;;;7.32;3.33;;;;;;;;;;4933178;28;20529;-59
2022/11/03 10:51:35;;;;;;;6.65;3.13;;;;;;;;;;4932213;28;20434;-61
2022/11/03 10:54:05;;;;;;;7.78;3.38;;;;;;;;;;4932430;28;20430;-60
2022/11/03 10:56:34;;;;;;;6.15;3.17;;;;;;;;;;4932655;28;20337;-60
2022/11/03 10:58:59;;;;;;;6.43;3.00;;;;;;;;;;4914781;28;20386;-59
2022/11/03 11:01:25;;;;;;;7.38;2.90;;;;;;;;;;4931833;28;20426;-59
2022/11/03 11:03:50;;;;;;;6.97;3.17;;;;;;;;;;4931907;28;20439;-60
2022/11/03 11:06:22;;;;;;;18.25;7.13;;;;;;;;;;4933806;28;20325;-60
2022/11/03 11:08:49;;;;;;;21.30;5.85;;;;;;;;;;4932334;28;20322;-59
2022/11/03 11:11:17;;;;;;;15.23;5.55;;;;;;;;;;4914383;28;20440;-60
2022/11/03 11:13:43;;;;;;;18.60;6.03;;;;;;;;;;4931762;28;20442;-60
2022/11/03 11:16:51;;;;;;;13.80;5.43;;;;;;;;;;4915071;28;20468;-60
2022/11/03 11:19:16;;;;;;;11.27;5.25;;;;;;;;;;4905535;28;20354;-59
2022/11/03 11:21:41;;;;;;;16.60;5.78;;;;;;;;;;4931885;28;20292;-62
2022/11/03 11:24:10;;;;;;;14.50;5.40;;;;;;;;;;4931650;28;20357;-60
2022/11/03 11:26:36;;;;;;;13.10;5.20;;;;;;;;;;4914315;28;20481;-61
2022/11/03 11:29:07;;;;;;;16.55;6.10;;;;;;;;;;4931650;28;20453;-61
2022/11/03 11:31:43;;;;;;;16.60;5.03;;;;;;;;;;4931582;28;20442;-60
2022/11/03 11:34:08;;;;;;;11.60;4.47;;;;;;;;;;4931325;28;20438;-61
2022/11/03 11:36:34;;;;;;;11.13;4.28;;;;;;;;;;4931698;28;20493;-59
2022/11/03 11:39:00;;;;;;;16.00;5.15;;;;;;;;;;4932366;28;20310;-60
2022/11/03 11:42:04;;;;;;;10.38;4.47;;;;;;;;;;4931254;28;20480;-60
2022/11/03 11:44:41;;;;;;;10.27;4.20;;;;;;;;;;4931860;28;20295;-60
2022/11/03 11:47:45;;;;;;;10.60;3.70;;;;;;;;;;4931123;28;20421;-61
2022/11/03 11:50:14;;;;;;;8.48;3.17;;;;;;;;;;4931553;28;20120;-59
2022/11/03 11:52:41;;;;;;;10.13;3.70;;;;;;;;;;4931079;28;20501;-62
2022/11/03 11:55:16;;;;;;;13.25;3.72;;;;;;;;;;4931844;28;20456;-60
2022/11/03 11:57:42;;;;;;;8.18;3.08;;;;;;;;;;4913355;28;20097;-60
2022/11/03 12:00:22;;;;;;;9.23;3.47;;;;;;;;;;4931006;28;20518;-60
2022/11/03 12:02:49;;;;;;;8.93;3.63;;;;;;;;;;4930531;28;20480;-60
2022/11/03 12:05:26;;;;;;;6.38;2.75;;;;;;;;;;4913166;28;20366;-62
2022/11/03 12:07:52;;;;;;;6.35;3.13;;;;;;;;;;4930998;28;20540;-59
2022/11/03 12:10:21;;;;;;;9.18;3.13;;;;;;;;;;4930977;28;20490;-60
2022/11/03 12:12:46;;;;;;;;;;;;;;;;;;4931388;28;20324;-61
2022/11/03 12:16:09;;;;;;;9.27;3.47;;;;;;;;;;4931110;28;20261;-61
2022/11/03 12:18:39;;;;;;;7.47;3.47;;;;;;;;;;4832874;29;20502;-60
2022/11/03 12:21:08;;;;;;;5.95;2.80;;;;;;;;;;4833574;29;20540;-59
2022/11/03 12:23:41;;;;;;;10.95;3.17;;;;;;;;;;4867126;28;20485;-60
2022/11/03 12:26:17;;;;;;;7.93;3.50;;;;;;;;;;4930923;28;20026;-60
2022/11/03 12:28:43;;;;;;;7.30;2.85;;;;;;;;;;4930268;28;20389;-60
2022/11/03 12:31:08;;;;;;;7.95;2.35;;;;;;;;;;4930696;28;20382;-60
2022/11/03 12:33:34;;;;;;;6.38;2.28;;;;;;;;;;4931698;28;20476;-62
2022/11/03 12:35:59;;;;;;;5.53;2.80;;;;;;;;;;4930856;28;20487;-60
2022/11/03 12:38:24;;;;;;;7.25;3.13;;;;;;;;;;4930560;28;20405;-60
2022/11/03 12:40:50;;;;;;;6.13;2.03;;;;;;;;;;4930341;28;20048;-60
2022/11/03 12:43:16;;;;;;;7.35;2.53;;;;;;;;;;4931812;28;20501;-60
2022/11/03 12:45:42;;;;;;;6.72;2.58;;;;;;;;;;4930733;28;20425;-60
2022/11/03 12:48:07;;;;;;;5.72;2.35;;;;;;;;;;4930396;28;20405;-60
2022/11/03 12:50:33;;;;;;;4.47;2.10;;;;;;;;;;4930443;28;20488;-59
2022/11/03 12:52:58;;;;;;;6.22;2.28;;;;;;;;;;4930782;28;20516;-59
2022/11/03 12:55:24;;;;;;;4.45;2.08;;;;;;;;;;4930294;28;20412;-60
2022/11/03 12:57:49;;;;;;;6.28;2.33;;;;;;;;;;4930433;28;20420;-59
2022/11/03 13:00:15;;;;;;;6.72;2.22;;;;;;;;;;4930106;28;20418;-60
2022/11/03 13:02:40;;;;;;;6.43;2.33;;;;;;;;;;4929738;28;20129;-60
2022/11/03 13:05:06;;;;;;;4.25;2.20;;;;;;;;;;4930167;28;20413;-59
2022/11/03 13:07:31;;;;;;;4.03;2.03;;;;;;;;;;4930275;28;20511;-59
2022/11/03 13:09:57;;;;;;;8.30;2.05;;;;;;;;;;4930226;28;20461;-60
2022/11/03 13:12:31;;;;;;;6.55;2.60;;;;;;;;;;4930752;28;20290;-62
2022/11/03 13:14:58;;;;;;;8.13;2.28;;;;;;;;;;4930388;28;20030;-60
2022/11/03 13:17:24;;;;;;;7.18;2.58;;;;;;;;;;4930218;28;20393;-60
2022/11/03 13:19:49;;;;;;;5.60;2.25;;;;;;;;;;4930550;28;20437;-60
2022/11/03 13:22:14;;;;;;;5.20;2.40;;;;;;;;;;4929827;28;20444;-59
2022/11/03 13:24:40;;;;;;;6.32;2.28;;;;;;;;;;4929914;28;20389;-60
2022/11/03 13:27:05;;;;;;;5.43;2.15;;;;;;;;;;4930161;28;20076;-60
2022/11/03 13:29:30;;;;;;;7.22;2.20;;;;;;;;;;4929937;28;20480;-60
2022/11/03 13:31:55;;;;;;;13.00;2.08;;;;;;;;;;4934480;28;20105;-59
2022/11/03 13:34:21;;;;;;;4.40;1.92;;;;;;;;;;4934067;28;20445;-59
2022/11/03 13:36:46;;;;;;;8.45;2.95;;;;;;;;;;4933626;28;20459;-60
2022/11/03 13:39:11;;;;;;;6.93;2.85;;;;;;;;;;4933794;28;20433;-59
2022/11/03 13:41:37;;;;;;;7.85;2.72;;;;;;;;;;4933533;28;20129;-59
2022/11/03 13:44:02;;;;;;;5.22;2.40;;;;;;;;;;4933592;28;20534;-59
2022/11/03 13:46:27;;;;;;;13.25;2.80;;;;;;;;;;4933984;28;20474;-60
2022/11/03 13:48:53;;;;;;;4.97;2.40;;;;;;;;;;4934051;28;20433;-59
2022/11/03 13:51:20;;;;;;;5.43;2.15;;;;;;;;;;4933720;28;20440;-60
2022/11/03 13:53:46;;;;;;;8.02;2.85;;;;;;;;;;4933129;28;20386;-59
2022/11/03 13:56:12;;;;;;;7.63;2.45;;;;;;;;;;4934890;28;20418;-61
2022/11/03 13:58:37;;;;;;;5.45;2.22;;;;;;;;;;4933281;28;20434;-59
2022/11/03 14:01:02;;;;;;;5.00;2.33;;;;;;;;;;4933138;28;20454;-59
2022/11/03 14:03:28;;;;;;;6.95;2.65;;;;;;;;;;4934910;28;20388;-59
2022/11/03 14:05:53;;;;;;;11.38;3.35;;;;;;;;;;4933376;28;20413;-59
2022/11/03 14:08:18;;;;;;;6.15;2.58;;;;;;;;;;4933597;28;20035;-60
2022/11/03 14:10:43;;;;;;;6.93;2.60;;;;;;;;;;4933621;28;20456;-59
2022/11/03 14:13:09;;;;;;;12.48;2.65;;;;;;;;;;4934117;28;20441;-59
2022/11/03 14:15:34;;;;;;;6.93;2.47;;;;;;;;;;4933366;28;20318;-58
2022/11/03 14:18:00;;;;;;;5.20;2.40;;;;;;;;;;4932983;28;20436;-60
2022/11/03 14:20:25;;;;;;;10.35;2.90;;;;;;;;;;4933498;28;20050;-60
2022/11/03 14:22:50;;;;;;;5.95;2.58;;;;;;;;;;4932979;28;20165;-61
2022/11/03 14:25:18;;;;;;;6.60;2.58;;;;;;;;;;4932902;28;20345;-61
2022/11/03 14:27:44;;;;;;;9.50;2.65;;;;;;;;;;4933251;28;20345;-60
2022/11/03 14:30:10;;;;;;;11.73;2.67;;;;;;;;;;4932679;28;20342;-59
2022/11/03 14:32:35;;;;;;;5.85;2.15;;;;;;;;;;4932766;28;20384;-59
2022/11/03 14:35:01;;;;;;;4.95;2.25;;;;;;;;;;4933200;28;20366;-59
2022/11/03 14:37:27;;;;;;;8.77;2.50;;;;;;;;;;4933207;28;20488;-59
2022/11/03 14:39:52;;;;;;;5.85;2.17;;;;;;;;;;4933690;28;20410;-59
2022/11/03 14:42:18;;;;;;;6.15;2.20;;;;;;;;;;4931182;28;20393;-59
2022/11/03 14:44:44;;;;;;;7.47;2.55;;;;;;;;;;4932700;28;20428;-59
2022/11/03 14:47:12;;;;;;;6.32;2.67;;;;;;;;;;4932582;28;20382;-59
2022/11/03 14:49:37;;;;;;;7.35;2.45;;;;;;;;;;4932835;28;20327;-61
2022/11/03 14:52:04;;;;;;;5.13;2.60;;;;;;;;;;4932594;28;20038;-59
2022/11/03 14:54:30;;;;;;;12.60;2.92;;;;;;;;;;4932372;28;20434;-59
2022/11/03 14:56:55;;;;;;;9.27;2.72;;;;;;;;;;4932717;28;20465;-58
2022/11/03 14:59:21;;;;;;;7.75;2.45;;;;;;;;;;4932278;28;20517;-58
2022/11/03 15:01:48;;;;;;;10.35;3.15;;;;;;;;;;4932545;28;20046;-59